Time;durP1;ratioP1;P1;durP2;ratioP2;P2;SDS_P1;SDS_P2;PMS_P1;PMS_P2;Temp;Humidity;BMP_temperature;BMP_pressure;BME280_temperature;BME280_humidity;BME280_pressure;Samples;Min_cycle;Max_cycle;Signal;HPM_P1;HPM_P2
2022/02/24 00:02:42;;;;;;;4.20;3.50;;;4.90;49.60;;;;;;6223410;28;20464;-63
2022/02/24 00:05:46;;;;;;;6.57;4.70;;;4.80;49.80;;;;;;6227588;28;20475;-65
2022/02/24 00:08:49;;;;;;;4.20;3.60;;;4.80;50.00;;;;;;6227570;28;20473;-66
2022/02/24 00:11:54;;;;;;;6.20;4.10;;;4.80;50.40;;;;;;6227026;28;20905;-65
2022/02/24 00:14:58;;;;;;;4.10;3.63;;;4.70;50.30;;;;;;6218446;28;20997;-64
2022/02/24 00:18:01;;;;;;;4.43;4.00;;;4.70;50.40;;;;;;6222648;28;20800;-62
2022/02/24 00:21:04;;;;;;;4.00;3.23;;;4.70;50.60;;;;;;6227648;28;20471;-62
2022/02/24 00:24:09;;;;;;;3.33;3.00;;;4.60;50.70;;;;;;6227883;28;20476;-61
2022/02/24 00:27:13;;;;;;;4.27;3.03;;;4.50;50.70;;;;;;6227744;28;20480;-62
2022/02/24 00:30:16;;;;;;;4.23;3.20;;;4.40;51.10;;;;;;6227504;28;20484;-61
2022/02/24 00:33:19;;;;;;;2.93;2.60;;;4.40;51.10;;;;;;6227689;28;20975;-62
2022/02/24 00:36:22;;;;;;;6.37;3.50;;;4.20;51.40;;;;;;6228018;28;20472;-61
2022/02/24 00:39:25;;;;;;;4.80;3.10;;;4.10;52.00;;;;;;6227441;28;20487;-62
2022/02/24 00:42:30;;;;;;;6.87;3.37;;;4.10;52.00;;;;;;6227392;28;20487;-62
2022/02/24 00:45:33;;;;;;;3.17;2.80;;;4.00;52.20;;;;;;6225926;28;20476;-62
2022/02/24 00:48:36;;;;;;;3.00;2.70;;;4.10;55.50;;;;;;6224810;28;20485;-63
2022/02/24 00:51:40;;;;;;;3.33;3.07;;;4.10;56.30;;;;;;6226121;28;20539;-63
2022/02/24 00:54:45;;;;;;;4.47;3.10;;;4.10;56.30;;;;;;6224306;28;20489;-63
2022/02/24 00:57:53;;;;;;;3.80;2.67;;;4.10;56.30;;;;;;6225637;28;20814;-63
2022/02/24 01:00:56;;;;;;;4.80;3.13;;;4.10;55.00;;;;;;6225587;28;20815;-63
2022/02/24 01:04:00;;;;;;;3.03;2.73;;;4.10;54.50;;;;;;6221615;28;20649;-63
2022/02/24 01:07:03;;;;;;;3.53;2.70;;;4.00;53.40;;;;;;6226156;28;20476;-64
2022/02/24 01:10:07;;;;;;;2.90;2.70;;;4.00;53.40;;;;;;6224676;28;20967;-63
2022/02/24 01:13:12;;;;;;;3.40;2.60;;;4.00;53.40;;;;;;6224907;28;20479;-64
2022/02/24 01:16:15;;;;;;;3.00;2.80;;;4.00;53.40;;;;;;6225101;28;20472;-64
2022/02/24 01:19:18;;;;;;;4.80;2.30;;;4.00;53.60;;;;;;6224520;28;20477;-64
2022/02/24 01:22:21;;;;;;;3.17;2.53;;;3.90;53.70;;;;;;6225001;28;20472;-64
2022/02/24 01:25:24;;;;;;;2.87;2.57;;;3.90;53.50;;;;;;6224197;28;20871;-64
2022/02/24 01:28:29;;;;;;;2.53;2.33;;;3.80;53.50;;;;;;6225081;28;20476;-63
2022/02/24 01:31:33;;;;;;;2.73;2.53;;;3.70;53.60;;;;;;6225511;28;20574;-63
2022/02/24 01:34:37;;;;;;;4.00;2.97;;;3.60;53.80;;;;;;6225725;28;20548;-61
2022/02/24 01:37:40;;;;;;;3.40;2.50;;;3.60;54.00;;;;;;6225525;28;20483;-61
2022/02/24 01:40:43;;;;;;;2.90;2.20;;;3.60;54.20;;;;;;6225492;28;20491;-61
2022/02/24 01:43:48;;;;;;;3.13;2.70;;;3.60;54.50;;;;;;6225035;28;20476;-61
2022/02/24 01:46:52;;;;;;;4.33;3.33;;;3.60;54.70;;;;;;6225107;28;20805;-61
2022/02/24 01:49:55;;;;;;;4.10;2.70;;;3.70;54.90;;;;;;6225106;28;20816;-62
2022/02/24 01:52:59;;;;;;;3.63;3.33;;;3.60;54.70;;;;;;6225128;28;20488;-59
2022/02/24 01:56:05;;;;;;;4.93;3.20;;;3.60;55.10;;;;;;6225153;28;20558;-60
2022/02/24 01:59:10;;;;;;;3.93;2.43;;;3.60;55.30;;;;;;6224856;28;20471;-60
2022/02/24 02:02:14;;;;;;;3.70;3.33;;;3.50;55.20;;;;;;6224982;28;20483;-60
2022/02/24 02:05:18;;;;;;;2.87;2.40;;;3.50;55.60;;;;;;6225077;28;20803;-61
2022/02/24 02:08:21;;;;;;;3.97;3.40;;;3.50;55.70;;;;;;6215436;28;20805;-61
2022/02/24 02:11:24;;;;;;;4.40;2.93;;;3.50;55.70;;;;;;6224922;28;20476;-61
2022/02/24 02:14:29;;;;;;;3.13;2.63;;;3.50;55.70;;;;;;6219658;28;20914;-60
2022/02/24 02:17:32;;;;;;;3.43;2.87;;;3.50;55.80;;;;;;6201117;28;20479;-60
2022/02/24 02:20:39;;;;;;;3.60;2.73;;;3.40;55.60;;;;;;6200305;28;20481;-62
2022/02/24 02:23:42;;;;;;;2.80;2.40;;;3.40;56.00;;;;;;6200036;28;20461;-63
2022/02/24 02:26:46;;;;;;;3.17;2.87;;;3.50;56.00;;;;;;6200534;28;20450;-62
2022/02/24 02:29:50;;;;;;;2.67;2.40;;;3.50;55.70;;;;;;6200620;28;20473;-62
2022/02/24 02:32:53;;;;;;;3.33;2.70;;;3.40;55.80;;;;;;6200351;28;20460;-64
2022/02/24 02:35:57;;;;;;;4.13;3.13;;;3.50;56.00;;;;;;6204674;28;20763;-63
2022/02/24 02:39:00;;;;;;;3.00;2.67;;;3.50;56.00;;;;;;6229163;28;20476;-63
2022/02/24 02:42:04;;;;;;;3.57;2.57;;;3.50;56.00;;;;;;6229154;28;20473;-62
2022/02/24 02:45:08;;;;;;;3.33;3.00;;;3.50;56.00;;;;;;6229099;28;20814;-63
2022/02/24 02:48:11;;;;;;;2.20;2.10;;;3.40;55.90;;;;;;6229040;28;20490;-63
2022/02/24 02:51:16;;;;;;;2.27;2.13;;;3.50;56.10;;;;;;6228744;28;20804;-63
2022/02/24 02:54:20;;;;;;;3.50;2.53;;;3.50;56.00;;;;;;6229573;28;20599;-63
2022/02/24 02:57:23;;;;;;;2.40;2.20;;;3.50;56.00;;;;;;6229015;28;20487;-62
2022/02/24 03:00:26;;;;;;;3.80;2.60;;;3.50;56.20;;;;;;6229072;28;20515;-62
2022/02/24 03:03:29;;;;;;;2.97;2.50;;;3.50;56.40;;;;;;6228496;28;20970;-62
2022/02/24 03:06:34;;;;;;;3.40;2.53;;;3.50;56.40;;;;;;6228671;28;20489;-62
2022/02/24 03:09:37;;;;;;;3.43;2.47;;;3.50;56.60;;;;;;6223810;28;20480;-62
2022/02/24 03:12:40;;;;;;;3.00;2.37;;;3.50;56.40;;;;;;6228741;28;20480;-62
2022/02/24 03:15:44;;;;;;;3.07;2.50;;;3.50;56.40;;;;;;6213188;28;20473;-63
2022/02/24 03:18:47;;;;;;;3.87;2.50;;;3.50;56.40;;;;;;6204630;28;20492;-62
2022/02/24 03:21:51;;;;;;;3.17;2.13;;;3.40;56.50;;;;;;6204270;28;20484;-62
2022/02/24 03:24:54;;;;;;;3.30;2.90;;;3.40;56.70;;;;;;6204048;28;20488;-62
2022/02/24 03:27:57;;;;;;;3.07;2.73;;;3.40;56.90;;;;;;6204291;28;20473;-62
2022/02/24 03:31:01;;;;;;;4.03;2.50;;;3.40;57.00;;;;;;6203749;28;20473;-62
2022/02/24 03:34:04;;;;;;;3.37;3.07;;;3.40;57.10;;;;;;6204097;28;20473;-62
2022/02/24 03:37:08;;;;;;;3.03;2.73;;;3.40;57.40;;;;;;6218050;28;20477;-62
2022/02/24 03:40:13;;;;;;;2.60;2.40;;;3.30;57.50;;;;;;6228376;28;20948;-62
2022/02/24 03:43:16;;;;;;;4.77;3.07;;;3.20;57.70;;;;;;6228001;28;20480;-62
2022/02/24 03:46:19;;;;;;;2.77;2.50;;;3.20;57.90;;;;;;6228542;28;20480;-62
2022/02/24 03:49:22;;;;;;;2.30;2.10;;;3.10;57.90;;;;;;6227782;28;20485;-63
2022/02/24 03:52:27;;;;;;;2.90;2.30;;;3.10;58.40;;;;;;6228247;28;20472;-62
2022/02/24 03:55:30;;;;;;;2.50;2.30;;;3.10;58.40;;;;;;6227802;28;20485;-62
2022/02/24 03:58:33;;;;;;;4.43;2.23;;;3.10;58.50;;;;;;6227386;28;20484;-62
2022/02/24 04:01:37;;;;;;;6.63;2.40;;;3.10;58.40;;;;;;6227093;28;21099;-62
2022/02/24 04:04:41;;;;;;;3.23;2.60;;;3.10;58.50;;;;;;6226967;28;20863;-62
2022/02/24 04:07:46;;;;;;;3.80;2.37;;;3.10;58.50;;;;;;6227047;28;20539;-63
2022/02/24 04:10:49;;;;;;;4.17;2.33;;;3.10;58.50;;;;;;6226885;28;20499;-63
2022/02/24 04:13:52;;;;;;;2.80;2.60;;;3.10;58.50;;;;;;6226484;28;20911;-63
2022/02/24 04:16:56;;;;;;;2.87;2.33;;;3.10;58.80;;;;;;6193555;28;20496;-63
2022/02/24 04:19:59;;;;;;;2.40;2.20;;;3.10;59.00;;;;;;6202624;28;20484;-63
2022/02/24 04:23:04;;;;;;;2.30;2.10;;;3.20;59.10;;;;;;6202528;28;20488;-63
2022/02/24 04:26:07;;;;;;;3.07;2.43;;;3.10;59.00;;;;;;6202993;28;20469;-62
2022/02/24 04:29:10;;;;;;;2.27;2.07;;;3.10;59.10;;;;;;6209306;28;20483;-62
2022/02/24 04:32:13;;;;;;;4.07;2.07;;;3.00;59.30;;;;;;6226249;28;20475;-63
2022/02/24 04:35:17;;;;;;;3.33;2.23;;;3.00;59.40;;;;;;6225764;28;20487;-63
2022/02/24 04:38:21;;;;;;;4.07;2.33;;;3.00;59.70;;;;;;6225311;28;20473;-63
2022/02/24 04:41:25;;;;;;;4.13;2.20;;;2.90;59.70;;;;;;6225946;28;20971;-63
2022/02/24 04:44:28;;;;;;;4.00;2.20;;;2.90;59.70;;;;;;6226219;28;20465;-63
2022/02/24 04:47:31;;;;;;;2.17;2.07;;;2.90;59.80;;;;;;6225334;28;20464;-63
2022/02/24 04:50:34;;;;;;;3.27;1.93;;;2.90;60.00;;;;;;6225082;28;20480;-63
2022/02/24 04:53:39;;;;;;;5.20;2.07;;;2.90;60.10;;;;;;6226085;28;20483;-63
2022/02/24 04:56:42;;;;;;;5.63;2.47;;;2.80;59.90;;;;;;6225002;28;20491;-63
2022/02/24 04:59:45;;;;;;;2.90;2.60;;;2.80;60.00;;;;;;6224464;28;20947;-63
2022/02/24 05:02:48;;;;;;;7.83;2.43;;;2.80;60.20;;;;;;6225165;28;20436;-63
2022/02/24 05:05:54;;;;;;;3.43;2.33;;;2.70;60.50;;;;;;6226277;28;20445;-64
2022/02/24 05:08:59;;;;;;;3.87;2.27;;;2.70;61.00;;;;;;6225914;28;20475;-65
2022/02/24 05:12:02;;;;;;;4.60;2.17;;;2.70;61.20;;;;;;6225934;28;20764;-65
2022/02/24 05:15:06;;;;;;;2.10;1.90;;;2.60;61.40;;;;;;6226159;28;20471;-64
2022/02/24 05:18:09;;;;;;;2.03;1.57;;;2.60;61.90;;;;;;6216523;28;20562;-63
2022/02/24 05:21:13;;;;;;;2.90;2.70;;;2.60;62.40;;;;;;6226091;28;20484;-65
2022/02/24 05:24:17;;;;;;;2.47;2.20;;;2.60;62.70;;;;;;6226068;28;20475;-64
2022/02/24 05:27:20;;;;;;;2.50;2.30;;;2.60;63.10;;;;;;6225824;28;20480;-65
2022/02/24 05:30:23;;;;;;;4.53;2.77;;;2.60;62.80;;;;;;6225346;28;20480;-61
2022/02/24 05:33:27;;;;;;;3.23;2.53;;;2.50;62.80;;;;;;6225183;28;20471;-62
2022/02/24 05:36:30;;;;;;;2.97;2.47;;;2.50;62.80;;;;;;6223993;28;20499;-62
2022/02/24 05:39:35;;;;;;;3.77;2.87;;;2.50;63.50;;;;;;6223994;28;20487;-61
2022/02/24 05:42:38;;;;;;;4.83;2.77;;;2.50;63.30;;;;;;6224266;28;20495;-62
2022/02/24 05:45:42;;;;;;;5.40;2.90;;;2.50;63.40;;;;;;6222214;28;20480;-61
2022/02/24 05:48:46;;;;;;;6.10;2.73;;;2.40;63.60;;;;;;6222531;28;20472;-61
2022/02/24 05:51:49;;;;;;;8.13;3.70;;;2.40;64.00;;;;;;6224069;28;20469;-62
2022/02/24 05:54:54;;;;;;;5.67;3.40;;;2.30;64.30;;;;;;6224736;28;20476;-61
2022/02/24 05:57:57;;;;;;;5.93;3.20;;;2.30;64.80;;;;;;6225669;28;20468;-61
2022/02/24 06:01:00;;;;;;;4.47;2.73;;;2.40;65.40;;;;;;6225517;28;20481;-61
2022/02/24 06:04:04;;;;;;;7.17;2.73;;;2.40;65.50;;;;;;6225335;28;20530;-61
2022/02/24 06:07:08;;;;;;;4.43;3.80;;;2.40;65.60;;;;;;6225411;28;20476;-61
2022/02/24 06:10:13;;;;;;;5.37;3.07;;;2.40;65.80;;;;;;6224947;28;20495;-62
2022/02/24 06:13:16;;;;;;;6.63;3.00;;;2.40;65.60;;;;;;6228910;28;20480;-61
2022/02/24 06:16:19;;;;;;;5.57;3.73;;;2.40;65.40;;;;;;6229865;28;20484;-61
2022/02/24 06:19:23;;;;;;;3.80;3.20;;;2.50;65.00;;;;;;6229958;28;20550;-61
2022/02/24 06:22:29;;;;;;;3.80;3.33;;;2.50;64.70;;;;;;6220413;28;20468;-61
2022/02/24 06:25:34;;;;;;;4.77;4.23;;;2.60;64.90;;;;;;6230218;28;20480;-61
2022/02/24 06:28:37;;;;;;;4.20;3.53;;;2.60;65.00;;;;;;6229746;28;20487;-61
2022/02/24 06:31:40;;;;;;;3.67;3.30;;;2.70;65.10;;;;;;6229760;28;20479;-60
2022/02/24 06:34:44;;;;;;;3.43;2.97;;;2.70;65.10;;;;;;6229808;28;20479;-61
2022/02/24 06:37:48;;;;;;;8.53;4.50;;;2.70;65.00;;;;;;6229330;28;20507;-61
2022/02/24 06:40:53;;;;;;;6.50;3.47;;;2.70;65.10;;;;;;6230833;28;20496;-60
2022/02/24 06:43:56;;;;;;;5.40;2.90;;;2.70;64.90;;;;;;6229795;28;20491;-60
2022/02/24 06:46:59;;;;;;;3.23;2.93;;;2.80;65.10;;;;;;6229115;28;20471;-60
2022/02/24 06:50:03;;;;;;;7.03;3.80;;;2.80;65.40;;;;;;6229528;28;20495;-60
2022/02/24 06:53:06;;;;;;;5.57;3.47;;;2.80;65.80;;;;;;6229241;28;20472;-59
2022/02/24 06:56:11;;;;;;;4.90;3.40;;;2.80;65.80;;;;;;6228466;28;20479;-60
2022/02/24 06:59:17;;;;;;;4.73;3.10;;;2.90;65.90;;;;;;6228444;28;20530;-60
2022/02/24 07:02:21;;;;;;;3.93;3.50;;;3.00;66.00;;;;;;6229071;28;20599;-60
2022/02/24 07:05:27;;;;;;;9.17;3.70;;;3.10;65.90;;;;;;6229543;28;20464;-60
2022/02/24 07:08:30;;;;;;;6.50;4.67;;;3.10;65.50;;;;;;6228978;28;20503;-60
2022/02/24 07:11:34;;;;;;;6.80;3.87;;;3.20;65.20;;;;;;6228909;28;20526;-60
2022/02/24 07:14:37;;;;;;;4.43;4.00;;;3.30;64.90;;;;;;6228182;28;20468;-61
2022/02/24 07:17:44;;;;;;;8.47;4.20;;;3.30;64.60;;;;;;6228409;28;20487;-60
2022/02/24 07:20:47;;;;;;;6.43;3.47;;;3.40;64.30;;;;;;6227698;28;20464;-60
2022/02/24 07:23:50;;;;;;;9.77;5.10;;;3.50;64.10;;;;;;6217647;28;20448;-60
2022/02/24 07:26:55;;;;;;;4.40;3.40;;;3.70;64.00;;;;;;6227873;28;20444;-60
2022/02/24 07:29:58;;;;;;;8.30;4.20;;;3.80;63.80;;;;;;6227863;28;20468;-60
2022/02/24 07:33:01;;;;;;;7.37;3.97;;;3.90;63.50;;;;;;6227734;28;20947;-60
2022/02/24 07:36:05;;;;;;;5.40;3.70;;;4.00;63.20;;;;;;6228368;28;20483;-61
2022/02/24 07:39:10;;;;;;;7.00;4.17;;;4.10;62.90;;;;;;6227672;28;20538;-61
2022/02/24 07:42:17;;;;;;;6.43;4.27;;;4.20;62.70;;;;;;6227252;28;20491;-60
2022/02/24 07:45:20;;;;;;;8.93;3.97;;;4.30;62.50;;;;;;6227927;28;20547;-61
2022/02/24 07:48:23;;;;;;;6.93;4.33;;;4.40;62.20;;;;;;6227737;28;20468;-61
2022/02/24 07:51:26;;;;;;;5.20;4.17;;;4.50;62.10;;;;;;6227564;28;20815;-61
2022/02/24 07:54:29;;;;;;;5.53;4.10;;;4.70;61.90;;;;;;6227999;28;20491;-61
2022/02/24 07:57:34;;;;;;;9.03;4.17;;;4.80;61.50;;;;;;6227464;28;20843;-61
2022/02/24 08:00:38;;;;;;;4.67;3.43;;;4.80;61.10;;;;;;6227645;28;20491;-61
2022/02/24 08:03:41;;;;;;;4.90;3.60;;;5.00;60.90;;;;;;6226776;28;20813;-60
2022/02/24 08:06:44;;;;;;;4.10;3.70;;;5.10;60.60;;;;;;6226360;28;20468;-60
2022/02/24 08:09:48;;;;;;;4.83;4.07;;;5.20;60.10;;;;;;6226818;28;20967;-60
2022/02/24 08:12:52;;;;;;;5.80;4.60;;;5.30;60.20;;;;;;6226914;28;20468;-61
2022/02/24 08:15:56;;;;;;;6.57;3.77;;;5.40;59.90;;;;;;6224610;28;20480;-61
2022/02/24 08:19:00;;;;;;;5.77;3.87;;;5.50;59.60;;;;;;6226171;28;20547;-61
2022/02/24 08:22:04;;;;;;;9.03;3.87;;;5.70;59.00;;;;;;6226512;28;20499;-61
2022/02/24 08:25:10;;;;;;;4.97;4.33;;;5.90;58.80;;;;;;6226031;28;20483;-61
2022/02/24 08:28:14;;;;;;;5.60;4.30;;;6.20;58.30;;;;;;6221485;28;20523;-61
2022/02/24 08:31:17;;;;;;;7.07;4.50;;;6.50;57.50;;;;;;6226212;28;20480;-60
2022/02/24 08:34:21;;;;;;;5.17;4.67;;;6.80;56.70;;;;;;6226072;28;20468;-60
2022/02/24 08:37:25;;;;;;;7.00;4.77;;;8.30;56.70;;;;;;6225871;28;20986;-61
2022/02/24 08:40:28;;;;;;;7.60;4.80;;;12.40;50.50;;;;;;6225706;28;20966;-62
2022/02/24 08:43:33;;;;;;;5.77;4.40;;;16.80;40.50;;;;;;6225772;28;20472;-64
2022/02/24 08:46:36;;;;;;;7.23;4.80;;;20.80;34.00;;;;;;6223888;28;20468;-63
2022/02/24 08:49:39;;;;;;;9.30;6.67;;;23.10;28.80;;;;;;6225715;28;20679;-64
2022/02/24 08:52:43;;;;;;;8.20;5.30;;;25.70;26.20;;;;;;6225728;28;20228;-64
2022/02/24 08:55:46;;;;;;;6.03;5.43;;;28.00;23.40;;;;;;6226879;28;20224;-65
2022/02/24 08:58:50;;;;;;;9.43;5.97;;;30.00;21.20;;;;;;6225336;28;20224;-63
2022/02/24 09:01:53;;;;;;;6.20;5.50;;;31.80;19.60;;;;;;6223141;28;20290;-64
2022/02/24 09:04:57;;;;;;;6.75;6.13;;;32.70;18.20;;;;;;6225916;28;20274;-62
2022/02/24 09:08:00;;;;;;;8.77;6.57;;;33.30;17.30;;;;;;6225548;28;20784;-63
2022/02/24 09:11:05;;;;;;;10.23;6.38;;;33.60;16.60;;;;;;6224648;28;20768;-63
2022/02/24 09:14:12;;;;;;;6.75;6.15;;;34.10;16.20;;;;;;6225557;28;20295;-62
2022/02/24 09:17:15;;;;;;;6.88;6.22;;;35.70;15.70;;;;;;6225273;28;20615;-64
2022/02/24 09:20:18;;;;;;;7.82;5.55;;;36.70;14.80;;;;;;6225502;28;20552;-62
2022/02/24 09:23:22;;;;;;;7.15;5.60;;;37.50;14.20;;;;;;6223959;28;20447;-65
2022/02/24 09:26:25;;;;;;;7.63;6.25;;;37.10;14.10;;;;;;6225344;28;20228;-64
2022/02/24 09:29:29;;;;;;;6.45;5.95;;;37.90;13.70;;;;;;6225511;28;20228;-64
2022/02/24 09:32:34;;;;;;;7.97;6.45;;;38.40;13.50;;;;;;6225456;28;20574;-63
2022/02/24 09:35:38;;;;;;;7.53;6.82;;;39.10;13.10;;;;;;6225526;28;20232;-63
2022/02/24 09:38:41;;;;;;;7.43;6.60;;;39.00;12.90;;;;;;6232429;23;20239;-65
2022/02/24 09:41:45;;;;;;;8.15;7.45;;;39.20;12.80;;;;;;6226481;28;20232;-65
2022/02/24 09:44:50;;;;;;;8.68;7.40;;;39.50;12.80;;;;;;6225153;28;20220;-63
2022/02/24 09:47:56;;;;;;;9.68;8.40;;;39.70;12.70;;;;;;6224791;28;20286;-64
2022/02/24 09:51:00;;;;;;;9.43;8.45;;;40.20;12.30;;;;;;6224833;28;20228;-61
2022/02/24 09:54:04;;;;;;;9.18;8.45;;;38.70;12.50;;;;;;6224784;28;20696;-63
2022/02/24 09:57:07;;;;;;;8.60;7.90;;;37.30;13.40;;;;;;6225176;28;20298;-64
2022/02/24 10:00:13;;;;;;;8.98;8.18;;;37.80;13.40;;;;;;6224974;28;20606;-62
2022/02/24 10:03:30;;;;;;;8.80;7.90;;;39.00;13.00;;;;;;6225065;28;20243;-63
2022/02/24 10:06:37;;;;;;;8.63;7.88;;;38.70;13.00;;;;;;6224469;28;20221;-63
2022/02/24 10:09:40;;;;;;;8.65;7.75;;;38.70;13.00;;;;;;6205541;28;20261;-62
2022/02/24 10:12:43;;;;;;;8.18;7.45;;;38.50;13.20;;;;;;6200625;28;20695;-63
2022/02/24 10:15:55;;;;;;;9.68;8.00;;;39.70;12.70;;;;;;6216343;28;20557;-61
2022/02/24 10:19:12;;;;;;;8.15;7.45;;;39.70;12.50;;;;;;6224942;28;20228;-62
2022/02/24 10:22:19;;;;;;;7.20;6.57;;;39.90;12.30;;;;;;6225536;28;20237;-62
2022/02/24 10:25:23;;;;;;;6.90;6.32;;;40.60;12.10;;;;;;6225036;28;20233;-60
2022/02/24 10:28:38;;;;;;;6.88;6.28;;;41.40;11.70;;;;;;6224629;28;20243;-62
2022/02/24 10:31:43;;;;;;;4.57;4.18;;;40.20;12.00;;;;;;6224366;28;20696;-63
2022/02/24 10:34:46;;;;;;;4.30;3.90;;;40.50;11.60;;;;;;6224060;28;20235;-62
2022/02/24 10:37:55;;;;;;;4.88;4.10;;;39.70;11.80;;;;;;6224578;28;20229;-61
2022/02/24 10:40:58;;;;;;;5.25;4.78;;;40.30;11.80;;;;;;6224313;28;20552;-62
2022/02/24 10:44:16;;;;;;;5.97;4.90;;;40.70;11.80;;;;;;6224661;28;20287;-63
2022/02/24 10:47:21;;;;;;;3.85;3.55;;;40.90;11.70;;;;;;6224201;28;20228;-62
2022/02/24 10:50:55;;;;;;;4.55;3.90;;;40.50;11.60;;;;;;6224298;28;20548;-63
2022/02/24 10:54:01;;;;;;;5.10;4.53;;;42.00;11.50;;;;;;6224668;28;20267;-62
2022/02/24 10:57:15;;;;;;;4.10;3.70;;;41.10;11.40;;;;;;6224499;28;20564;-60
2022/02/24 11:00:22;;;;;;;3.97;3.67;;;39.80;11.80;;;;;;6227716;28;20248;-63
2022/02/24 11:03:29;;;;;;;4.93;4.10;;;41.00;11.50;;;;;;6229258;28;20239;-63
2022/02/24 11:06:34;;;;;;;5.30;3.38;;;42.30;11.30;;;;;;6229185;28;20235;-64
2022/02/24 11:09:38;;;;;;;3.35;3.05;;;41.80;11.20;;;;;;6228797;28;20731;-65
2022/02/24 11:12:41;;;;;;;3.63;3.33;;;42.50;10.90;;;;;;6228294;28;20244;-62
2022/02/24 11:15:45;;;;;;;2.92;2.67;;;42.00;10.90;;;;;;6228304;28;20694;-63
2022/02/24 11:18:50;;;;;;;3.08;2.50;;;42.50;10.90;;;;;;6227092;28;20763;-63
2022/02/24 11:21:56;;;;;;;3.63;2.50;;;42.30;10.90;;;;;;6228556;28;20225;-64
2022/02/24 11:25:01;;;;;;;3.65;2.75;;;43.10;10.50;;;;;;6228275;28;20228;-62
2022/02/24 11:28:07;;;;;;;3.20;2.88;;;43.20;10.50;;;;;;6228298;28;20229;-63
2022/02/24 11:31:23;;;;;;;5.53;4.13;;;42.20;10.50;;;;;;6227847;28;20236;-62
2022/02/24 11:35:06;;;;;;;2.75;2.55;;;42.30;10.90;;;;;;6228030;28;20249;-61
2022/02/24 11:38:12;;;;;;;5.30;2.58;;;43.70;10.70;;;;;;6227872;28;20244;-63
2022/02/24 11:41:18;;;;;;;4.18;3.08;;;44.90;10.20;;;;;;6222896;28;20236;-61
2022/02/24 11:44:36;;;;;;;3.20;2.97;;;44.10;10.30;;;;;;6225954;28;20263;-62
2022/02/24 11:47:55;;;;;;;3.10;2.80;;;44.80;10.20;;;;;;6226230;28;20232;-62
2022/02/24 11:51:01;;;;;;;4.07;3.47;;;44.50;10.10;;;;;;6225713;28;20640;-62
2022/02/24 11:54:05;;;;;;;4.18;3.88;;;44.80;9.90;;;;;;6226149;28;20240;-61
2022/02/24 11:57:27;;;;;;;3.47;3.17;;;44.80;10.00;;;;;;6226442;28;20235;-61
2022/02/24 12:00:30;;;;;;;3.85;3.00;;;45.40;9.80;;;;;;6226060;28;20473;-62
2022/02/24 12:03:55;;;;;;;3.80;3.38;;;44.50;9.90;;;;;;6227471;28;20260;-62
2022/02/24 12:07:12;;;;;;;3.80;3.40;;;43.00;10.60;;;;;;6226087;28;20435;-61
2022/02/24 12:10:16;;;;;;;5.95;5.35;;;44.40;10.30;;;;;;6214969;28;20237;-60
2022/02/24 12:13:30;;;;;;;5.97;5.03;;;44.30;10.00;;;;;;6216298;28;20240;-61
2022/02/24 12:16:34;;;;;;;4.43;4.00;;;44.10;9.90;;;;;;6214096;28;20245;-61
2022/02/24 12:19:39;;;;;;;3.70;3.38;;;43.80;10.30;;;;;;6202534;28;20283;-61
2022/02/24 12:22:44;;;;;;;4.43;3.00;;;44.60;10.00;;;;;;6202437;28;20247;-61
2022/02/24 12:25:47;;;;;;;3.90;3.60;;;46.00;9.70;;;;;;6219569;28;20243;-61
2022/02/24 12:28:50;;;;;;;3.97;3.67;;;46.10;9.50;;;;;;6226546;28;20243;-61
2022/02/24 12:31:57;;;;;;;3.60;3.30;;;45.60;9.50;;;;;;6220160;28;20236;-61
2022/02/24 12:35:00;;;;;;;3.70;3.40;;;45.10;9.70;;;;;;6226427;28;20224;-61
2022/02/24 12:38:06;;;;;;;3.20;3.00;;;45.50;9.70;;;;;;6223502;28;20240;-61
2022/02/24 12:41:10;;;;;;;4.45;4.05;;;45.40;9.50;;;;;;6215607;28;20224;-64
2022/02/24 12:44:21;;;;;;;3.63;3.35;;;45.60;9.60;;;;;;6216758;28;20225;-62
2022/02/24 12:47:25;;;;;;;3.15;2.85;;;45.50;9.60;;;;;;6206643;28;20247;-62
2022/02/24 12:50:36;;;;;;;3.33;3.03;;;45.90;9.50;;;;;;6214533;28;20244;-63
2022/02/24 12:53:42;;;;;;;3.20;2.90;;;45.60;9.60;;;;;;6217695;28;20745;-64
2022/02/24 12:56:45;;;;;;;3.60;3.33;;;45.20;9.50;;;;;;6215475;28;20322;-64
2022/02/24 12:59:48;;;;;;;4.00;3.30;;;45.40;9.70;;;;;;6222682;28;20212;-63
2022/02/24 13:02:52;;;;;;;3.47;3.17;;;45.30;9.70;;;;;;6225535;28;20211;-63
2022/02/24 13:05:59;;;;;;;3.35;3.15;;;43.90;9.80;;;;;;6218844;28;20647;-63
2022/02/24 13:12:25;;;;;;;4.05;3.30;;;44.10;10.30;;;;;;6211752;28;20237;-63
2022/02/24 13:15:30;;;;;;;4.60;4.15;;;42.70;10.30;;;;;;6217778;28;20262;-63
2022/02/24 13:18:38;;;;;;;3.50;3.20;;;41.50;10.90;;;;;;6213807;28;20232;-61
2022/02/24 13:21:41;;;;;;;4.20;3.90;;;40.40;11.40;;;;;;6216570;28;20678;-62
2022/02/24 13:24:45;;;;;;;3.40;3.20;;;40.20;11.80;;;;;;6211553;28;20243;-62
2022/02/24 13:27:49;;;;;;;4.38;3.58;;;40.30;11.60;;;;;;6219747;28;20535;-63
2022/02/24 13:30:56;;;;;;;5.45;3.35;;;39.80;11.80;;;;;;6214109;28;20569;-62
2022/02/24 13:33:59;;;;;;;5.70;4.85;;;39.60;12.00;;;;;;6222207;28;20235;-62
2022/02/24 13:37:03;;;;;;;4.80;4.00;;;39.10;12.10;;;;;;6223233;28;20685;-62
2022/02/24 13:40:10;;;;;;;5.18;4.25;;;36.60;13.20;;;;;;6224633;28;20260;-60
2022/02/24 13:43:14;;;;;;;4.68;4.18;;;36.70;13.40;;;;;;6223701;28;20237;-60
2022/02/24 13:46:18;;;;;;;4.63;4.22;;;36.20;13.70;;;;;;6223892;28;20239;-60
2022/02/24 13:49:32;;;;;;;5.07;4.68;;;36.00;13.80;;;;;;6214000;28;20243;-60
2022/02/24 13:52:37;;;;;;;4.68;4.35;;;36.10;13.80;;;;;;6223070;28;20232;-61
2022/02/24 13:55:52;;;;;;;4.45;4.05;;;35.90;14.00;;;;;;6223127;28;20295;-60
2022/02/24 13:58:59;;;;;;;5.90;4.53;;;35.70;14.20;;;;;;6223540;28;20329;-61
2022/02/24 14:02:02;;;;;;;4.47;4.13;;;34.90;14.60;;;;;;6223312;28;20283;-61
2022/02/24 14:05:12;;;;;;;4.93;4.53;;;33.20;15.60;;;;;;6225094;28;20228;-61
2022/02/24 14:08:16;;;;;;;4.95;4.45;;;31.20;16.90;;;;;;6225094;28;20672;-61
2022/02/24 14:11:24;;;;;;;5.67;5.10;;;28.60;18.80;;;;;;6225002;28;20656;-61
2022/02/24 14:14:27;;;;;;;6.20;5.60;;;26.20;20.80;;;;;;6224658;28;20232;-61
2022/02/24 14:17:31;;;;;;;5.93;5.33;;;25.00;21.90;;;;;;6225100;28;20592;-60
2022/02/24 14:20:38;;;;;;;5.37;4.83;;;24.20;22.50;;;;;;6224582;28;20236;-60
2022/02/24 14:23:42;;;;;;;6.57;5.90;;;23.40;23.50;;;;;;6224872;28;20236;-59
2022/02/24 14:26:46;;;;;;;7.00;5.70;;;22.30;24.60;;;;;;6225028;28;20256;-59
2022/02/24 14:29:49;;;;;;;5.63;5.17;;;21.60;25.30;;;;;;6225092;28;20237;-59
2022/02/24 14:32:53;;;;;;;7.90;4.90;;;21.10;25.80;;;;;;6226126;28;20653;-60
2022/02/24 14:35:56;;;;;;;6.17;5.57;;;20.70;26.20;;;;;;6229961;28;20209;-60
2022/02/24 14:38:59;;;;;;;5.20;4.67;;;20.30;26.90;;;;;;6228624;28;20244;-60
2022/02/24 14:42:07;;;;;;;5.20;4.70;;;20.00;27.20;;;;;;6229227;28;20213;-61
2022/02/24 14:45:10;;;;;;;7.00;4.90;;;19.70;27.60;;;;;;6228801;28;20268;-59
2022/02/24 14:48:16;;;;;;;5.87;5.30;;;19.50;27.90;;;;;;6229646;28;20229;-60
2022/02/24 14:51:21;;;;;;;7.40;5.80;;;19.30;28.30;;;;;;6228871;28;20237;-59
2022/02/24 14:54:25;;;;;;;6.03;5.03;;;19.20;28.60;;;;;;6228594;28;20241;-60
2022/02/24 14:57:30;;;;;;;8.13;5.30;;;19.10;28.80;;;;;;6228890;28;20256;-60
2022/02/24 15:00:34;;;;;;;6.00;5.40;;;18.80;29.30;;;;;;6228791;28;20225;-60
2022/02/24 15:03:39;;;;;;;6.50;5.90;;;18.60;29.40;;;;;;6228435;28;20375;-60
2022/02/24 15:06:43;;;;;;;7.73;5.80;;;18.60;29.70;;;;;;6228035;28;20243;-60
2022/02/24 15:09:48;;;;;;;6.10;5.50;;;18.30;30.20;;;;;;6229974;28;20727;-60
2022/02/24 15:13:09;;;;;;;6.87;5.33;;;18.10;30.40;;;;;;6233496;28;20225;-61
2022/02/24 15:16:12;;;;;;;11.30;6.60;;;17.90;30.70;;;;;;6234033;28;20247;-60
2022/02/24 15:19:15;;;;;;;6.23;5.73;;;17.80;30.90;;;;;;6233261;28;20237;-61
2022/02/24 15:22:18;;;;;;;7.70;5.67;;;17.50;31.10;;;;;;6209946;28;20229;-61
2022/02/24 15:25:22;;;;;;;5.53;5.00;;;17.40;31.80;;;;;;6222458;28;20476;-61
2022/02/24 15:28:26;;;;;;;6.53;5.93;;;17.40;31.30;;;;;;6229245;28;20468;-62
2022/02/24 15:31:30;;;;;;;6.50;5.90;;;17.30;31.70;;;;;;6227907;28;20480;-61
2022/02/24 15:34:36;;;;;;;6.20;5.40;;;17.10;32.10;;;;;;6228675;28;20788;-61
2022/02/24 15:37:40;;;;;;;9.23;6.20;;;17.00;32.20;;;;;;6227783;28;20491;-62
2022/02/24 15:40:43;;;;;;;6.60;5.63;;;17.00;32.50;;;;;;6228052;28;20539;-61
2022/02/24 15:43:47;;;;;;;6.63;5.20;;;17.00;32.70;;;;;;6227303;28;20975;-62
2022/02/24 15:46:51;;;;;;;5.50;5.00;;;16.80;32.90;;;;;;6227692;28;20967;-62
2022/02/24 15:49:56;;;;;;;7.97;5.33;;;16.80;33.20;;;;;;6227948;28;20517;-62
2022/02/24 15:53:01;;;;;;;6.05;5.40;;;16.70;33.20;;;;;;6227316;28;20444;-60
2022/02/24 15:56:04;;;;;;;6.23;5.60;;;16.60;33.50;;;;;;6228147;28;20233;-61
2022/02/24 15:59:09;;;;;;;6.93;4.87;;;16.50;33.50;;;;;;6222546;28;20487;-61
2022/02/24 16:02:14;;;;;;;6.50;5.00;;;16.50;33.90;;;;;;6228024;28;20491;-61
2022/02/24 16:05:20;;;;;;;6.07;4.80;;;16.30;34.10;;;;;;6227253;28;20791;-61
2022/02/24 16:08:23;;;;;;;8.07;6.13;;;16.10;34.60;;;;;;6227261;28;20482;-60
2022/02/24 16:11:27;;;;;;;7.80;5.90;;;15.90;34.80;;;;;;6227496;28;20483;-61
2022/02/24 16:14:32;;;;;;;7.50;5.80;;;15.80;35.30;;;;;;6227249;28;20467;-61